createdAt,value
2022-10-10T00:00:52.867Z,19.89
2022-10-10T00:03:20.883Z,19.88
2022-10-10T00:05:48.887Z,19.81
2022-10-10T00:08:16.888Z,19.86
2022-10-10T00:10:44.909Z,19.87
2022-10-10T00:13:12.899Z,19.85
2022-10-10T00:15:40.930Z,19.87
2022-10-10T00:18:08.916Z,19.85
2022-10-10T00:20:36.944Z,19.86
2022-10-10T00:23:04.945Z,19.89
2022-10-10T00:25:33.546Z,19.87
2022-10-10T00:28:02.555Z,19.89
2022-10-10T00:30:30.667Z,19.89
2022-10-10T00:32:59.228Z,19.89
2022-10-10T00:35:27.983Z,19.90
2022-10-10T00:37:55.996Z,19.92
2022-10-10T00:40:24.665Z,19.89
2022-10-10T00:42:53.008Z,19.91
2022-10-10T00:45:40.337Z,19.91
2022-10-10T00:48:16.925Z,19.90
2022-10-10T00:51:19.182Z,19.89
2022-10-10T00:53:52.707Z,19.89
2022-10-10T00:56:22.229Z,19.91
2022-10-10T00:58:52.311Z,19.90
2022-10-10T01:01:20.388Z,19.90
2022-10-10T01:03:48.824Z,19.92
2022-10-10T01:06:16.834Z,19.90
2022-10-10T01:08:44.881Z,19.88
2022-10-10T01:11:31.973Z,19.91
2022-10-10T01:14:08.862Z,19.91
2022-10-10T01:16:46.389Z,19.90
2022-10-10T01:19:32.713Z,19.89
2022-10-10T01:22:24.550Z,19.90
2022-10-10T01:24:59.203Z,19.91
2022-10-10T01:27:31.871Z,19.91
2022-10-10T01:30:05.396Z,19.88
2022-10-10T01:32:36.339Z,19.88
2022-10-10T01:36:34.818Z,19.88
2022-10-10T01:40:54.782Z,19.86
2022-10-10T01:43:24.261Z,19.87
2022-10-10T01:45:52.838Z,19.87
2022-10-10T01:48:31.426Z,19.89
2022-10-10T01:51:17.890Z,19.89
2022-10-10T01:56:56.284Z,19.88
2022-10-10T01:59:45.270Z,19.89
2022-10-10T02:03:43.958Z,19.88
2022-10-10T02:06:21.101Z,19.86
2022-10-10T02:08:54.294Z,19.86
2022-10-10T02:11:23.180Z,19.67
2022-10-10T02:13:57.388Z,19.86
2022-10-10T02:16:28.369Z,19.86
2022-10-10T02:18:57.861Z,19.84
2022-10-10T02:21:26.848Z,19.87
2022-10-10T02:23:56.545Z,19.85
2022-10-10T02:26:26.132Z,19.86
2022-10-10T02:29:07.551Z,19.86
2022-10-10T02:31:41.284Z,19.83
2022-10-10T02:34:20.483Z,19.84
2022-10-10T02:36:54.214Z,19.85
2022-10-10T02:39:24.511Z,19.85
2022-10-10T02:41:53.160Z,19.84
2022-10-10T02:44:24.472Z,19.85
2022-10-10T02:46:52.497Z,19.85
2022-10-10T02:49:27.933Z,19.84
2022-10-10T02:51:55.961Z,19.85
2022-10-10T02:54:24.673Z,19.86
2022-10-10T02:56:52.741Z,19.87
2022-10-10T02:59:20.662Z,19.61
2022-10-10T03:01:48.473Z,19.82
2022-10-10T03:04:17.092Z,19.83
2022-10-10T03:06:45.352Z,19.83
2022-10-10T03:09:13.374Z,19.82
2022-10-10T03:11:41.433Z,19.82
2022-10-10T03:14:12.562Z,19.83
2022-10-10T03:16:40.568Z,19.81
2022-10-10T03:19:12.576Z,19.80
2022-10-10T03:21:40.615Z,19.80
2022-10-10T03:24:08.603Z,19.80
2022-10-10T03:26:39.574Z,19.71
2022-10-10T03:29:07.603Z,19.79
2022-10-10T03:31:35.625Z,19.76
2022-10-10T03:34:03.656Z,19.77
2022-10-10T03:36:31.685Z,19.73
2022-10-10T03:38:59.697Z,19.76
2022-10-10T03:41:27.997Z,19.75
2022-10-10T03:43:56.506Z,19.76
2022-10-10T03:46:24.409Z,19.74
2022-10-10T03:48:52.413Z,19.70
2022-10-10T03:51:20.442Z,19.70
2022-10-10T03:53:48.321Z,19.69
2022-10-10T03:56:16.360Z,19.71
2022-10-10T03:58:44.387Z,19.69
2022-10-10T04:01:12.660Z,19.69
2022-10-10T04:03:40.826Z,19.62
2022-10-10T04:06:08.670Z,19.66
2022-10-10T04:08:36.705Z,19.61
2022-10-10T04:11:07.655Z,19.71
2022-10-10T04:13:35.654Z,19.73
2022-10-10T04:16:03.870Z,19.76
2022-10-10T04:18:31.802Z,19.78
2022-10-10T04:21:02.316Z,19.75
2022-10-10T04:23:30.338Z,19.62
2022-10-10T04:25:58.236Z,19.58
2022-10-10T04:28:26.493Z,19.63
2022-10-10T04:30:56.498Z,19.68
2022-10-10T04:33:24.510Z,19.68
2022-10-10T04:35:52.525Z,19.68
2022-10-10T04:38:21.084Z,19.63
2022-10-10T04:40:50.556Z,19.62
2022-10-10T04:43:19.286Z,19.74
2022-10-10T04:45:47.139Z,19.71
2022-10-10T04:48:15.131Z,19.62
2022-10-10T04:50:43.141Z,19.56
2022-10-10T04:53:11.639Z,19.57
2022-10-10T04:55:39.697Z,19.56
2022-10-10T04:58:07.711Z,19.56
2022-10-10T05:00:35.697Z,19.56
2022-10-10T05:03:03.558Z,19.57
2022-10-10T05:05:31.957Z,19.62
2022-10-10T05:07:59.955Z,19.57
2022-10-10T05:10:27.987Z,19.59
2022-10-10T05:12:55.993Z,19.59
2022-10-10T05:15:24.427Z,19.60
2022-10-10T05:17:52.456Z,19.60
2022-10-10T05:20:20.485Z,19.62
2022-10-10T05:22:48.541Z,19.65
2022-10-10T05:25:16.821Z,19.69
2022-10-10T05:27:44.826Z,19.68
2022-10-10T05:30:12.937Z,19.74
2022-10-10T05:32:40.578Z,19.76
2022-10-10T05:35:08.976Z,19.70
2022-10-10T05:37:36.841Z,19.74
2022-10-10T05:40:05.066Z,19.78
2022-10-10T05:42:33.081Z,19.74
2022-10-10T05:45:01.132Z,19.74
2022-10-10T05:47:29.007Z,19.75
2022-10-10T05:49:57.048Z,19.74
2022-10-10T05:52:25.069Z,19.79
2022-10-10T05:54:53.006Z,19.79
2022-10-10T05:57:20.997Z,19.76
2022-10-10T05:59:49.017Z,19.70
2022-10-10T06:02:17.069Z,19.68
2022-10-10T06:04:48.035Z,19.73
2022-10-10T06:07:16.199Z,19.71
2022-10-10T06:09:44.381Z,19.73
2022-10-10T06:12:12.451Z,19.71
2022-10-10T06:14:40.479Z,19.68
2022-10-10T06:17:10.396Z,19.77
2022-10-10T06:19:38.403Z,19.77
2022-10-10T06:22:09.160Z,19.84
2022-10-10T06:24:37.216Z,19.89
2022-10-10T06:27:05.025Z,19.91
2022-10-10T06:29:36.150Z,19.92
2022-10-10T06:32:04.192Z,19.89
2022-10-10T06:34:32.256Z,19.94
2022-10-10T06:37:00.266Z,19.88
2022-10-10T06:39:28.269Z,19.87
2022-10-10T06:41:59.678Z,19.97
2022-10-10T06:44:27.675Z,20.01
2022-10-10T06:46:58.452Z,19.98
2022-10-10T06:49:26.466Z,19.96
2022-10-10T06:51:54.500Z,19.97
2022-10-10T06:54:22.349Z,19.96
2022-10-10T06:56:52.832Z,19.96
2022-10-10T06:59:20.871Z,19.96
2022-10-10T07:01:48.956Z,19.94
2022-10-10T07:04:17.005Z,19.96
2022-10-10T07:06:44.845Z,19.97
2022-10-10T07:09:12.712Z,19.85
2022-10-10T07:11:44.920Z,19.88
2022-10-10T07:14:13.081Z,19.92
2022-10-10T07:16:41.102Z,19.91
2022-10-10T07:19:09.136Z,19.95
2022-10-10T07:21:37.165Z,20.01
2022-10-10T07:24:05.175Z,19.96
2022-10-10T07:26:37.702Z,20.04
2022-10-10T07:29:08.301Z,20.05
2022-10-10T07:31:36.322Z,20.01
2022-10-10T07:34:05.748Z,19.97
2022-10-10T07:36:33.778Z,19.99
2022-10-10T07:39:01.783Z,20.09
2022-10-10T07:41:29.801Z,20.10
2022-10-10T07:43:57.809Z,20.12
2022-10-10T07:46:25.799Z,20.13
2022-10-10T07:48:53.826Z,20.11
2022-10-10T07:51:22.005Z,20.12
2022-10-10T07:53:51.542Z,20.11
2022-10-10T07:56:19.557Z,20.01
2022-10-10T07:58:47.392Z,20.09
2022-10-10T08:01:15.407Z,20.08
2022-10-10T08:03:43.438Z,20.14
2022-10-10T08:06:13.159Z,20.13
2022-10-10T08:08:50.487Z,20.14
2022-10-10T08:11:21.128Z,20.15
2022-10-10T08:13:49.743Z,20.17
2022-10-10T08:16:17.765Z,20.14
2022-10-10T08:18:45.902Z,20.14
2022-10-10T08:21:15.078Z,20.16
2022-10-10T08:23:43.120Z,20.12
2022-10-10T08:26:12.056Z,20.15
2022-10-10T08:28:40.476Z,20.13
2022-10-10T08:31:16.277Z,20.12
2022-10-10T08:33:45.790Z,20.13
2022-10-10T08:36:15.412Z,19.52
2022-10-10T08:38:43.253Z,19.74
2022-10-10T08:41:18.996Z,19.96
2022-10-10T08:43:50.989Z,20.07
2022-10-10T08:46:34.231Z,20.13
2022-10-10T08:49:14.099Z,20.14
2022-10-10T08:51:43.345Z,20.15
2022-10-10T08:54:13.091Z,20.18
2022-10-10T08:56:42.098Z,20.19
2022-10-10T08:59:15.937Z,20.15
2022-10-10T09:02:18.329Z,20.12
2022-10-10T09:04:48.285Z,20.19
2022-10-10T09:07:27.828Z,20.17
2022-10-10T09:10:04.725Z,20.18
2022-10-10T09:13:00.041Z,20.20
2022-10-10T09:19:00.377Z,20.23
2022-10-10T09:21:36.789Z,20.31
2022-10-10T09:24:20.136Z,20.32
2022-10-10T09:26:53.354Z,20.32
2022-10-10T09:29:27.921Z,20.32
2022-10-10T09:32:01.542Z,20.31
2022-10-10T09:34:36.662Z,20.28
2022-10-10T09:37:04.543Z,20.29
2022-10-10T09:40:19.369Z,20.31
2022-10-10T09:42:47.213Z,20.31
2022-10-10T09:45:27.460Z,20.28
2022-10-10T09:47:55.618Z,20.27
2022-10-10T09:50:24.081Z,20.26
2022-10-10T09:52:52.509Z,20.28
2022-10-10T09:55:37.678Z,20.26
2022-10-10T09:58:52.211Z,20.20
2022-10-10T10:01:21.745Z,20.25
2022-10-10T10:04:23.501Z,20.27
2022-10-10T10:07:04.112Z,20.27
2022-10-10T10:09:32.107Z,20.22
2022-10-10T10:11:59.958Z,20.23
2022-10-10T10:14:35.397Z,20.23
2022-10-10T10:17:11.166Z,20.23
2022-10-10T10:19:40.700Z,20.19
2022-10-10T10:25:40.123Z,20.18
2022-10-10T10:28:29.292Z,20.13
2022-10-10T10:30:57.891Z,20.19
2022-10-10T10:33:36.229Z,20.16
2022-10-10T10:36:11.293Z,20.16
2022-10-10T10:38:50.483Z,20.20
2022-10-10T10:42:11.604Z,20.21
2022-10-10T10:44:46.379Z,20.20
2022-10-10T10:47:33.655Z,20.16
2022-10-10T10:52:38.893Z,20.21
2022-10-10T10:55:17.256Z,20.23
2022-10-10T10:58:10.791Z,20.24
2022-10-10T11:01:23.525Z,20.26
2022-10-10T11:05:19.930Z,20.26
2022-10-10T11:07:58.081Z,20.28
2022-10-10T11:11:17.585Z,20.29
2022-10-10T11:15:06.547Z,20.25
2022-10-10T11:17:40.475Z,20.29
2022-10-10T11:20:30.007Z,20.28
2022-10-10T11:23:11.159Z,20.28
2022-10-10T11:25:50.636Z,20.29
2022-10-10T11:28:33.485Z,20.29
2022-10-10T11:31:11.069Z,20.29
2022-10-10T11:33:47.462Z,20.29
2022-10-10T11:36:19.617Z,20.29
2022-10-10T11:39:05.535Z,20.25
2022-10-10T11:41:47.918Z,20.24
2022-10-10T11:44:18.150Z,20.25
2022-10-10T11:46:50.290Z,20.26
2022-10-10T11:49:28.445Z,20.26
2022-10-10T11:53:32.650Z,20.26
2022-10-10T11:56:10.544Z,20.22
2022-10-10T11:58:41.169Z,20.23
2022-10-10T12:01:18.755Z,20.22
2022-10-10T12:03:46.783Z,20.22
2022-10-10T12:06:23.956Z,20.20
2022-10-10T12:09:00.056Z,20.19
2022-10-10T12:12:58.840Z,20.22
2022-10-10T12:15:35.194Z,20.24
2022-10-10T12:18:05.747Z,20.26
2022-10-10T12:20:35.643Z,20.26
2022-10-10T12:24:54.926Z,20.25
2022-10-10T12:27:27.982Z,20.25
2022-10-10T12:30:19.105Z,20.28
2022-10-10T12:32:49.827Z,20.32
2022-10-10T12:35:37.855Z,20.32
2022-10-10T12:38:16.256Z,20.43
2022-10-10T12:41:02.793Z,20.44
2022-10-10T12:43:49.348Z,20.41
2022-10-10T12:46:19.182Z,20.40
2022-10-10T12:48:57.213Z,20.39
2022-10-10T12:51:26.044Z,20.29
2022-10-10T12:53:55.974Z,20.30
2022-10-10T12:56:44.282Z,20.41
2022-10-10T12:59:24.464Z,20.37
2022-10-10T13:01:55.186Z,20.38
2022-10-10T13:04:24.431Z,20.41
2022-10-10T13:06:54.231Z,20.42
2022-10-10T13:09:23.934Z,20.40
2022-10-10T13:11:56.764Z,20.38
2022-10-10T13:14:25.426Z,20.35
2022-10-10T13:16:53.531Z,20.44
2022-10-10T13:19:23.463Z,20.39
2022-10-10T13:21:55.721Z,20.39
2022-10-10T13:24:27.283Z,20.42
2022-10-10T13:26:55.282Z,20.40
2022-10-10T13:29:36.627Z,20.54
2022-10-10T13:32:06.533Z,20.44
2022-10-10T13:34:36.713Z,20.37
2022-10-10T13:37:05.876Z,20.34
2022-10-10T13:39:36.593Z,20.32
2022-10-10T13:42:05.760Z,20.30
2022-10-10T13:44:55.845Z,20.31
2022-10-10T13:47:41.704Z,20.45
2022-10-10T13:50:18.701Z,20.48
2022-10-10T13:52:46.719Z,20.44
2022-10-10T13:55:16.218Z,20.43
2022-10-10T13:57:44.266Z,20.38
2022-10-10T14:00:16.773Z,20.40
2022-10-10T14:02:45.759Z,20.41
2022-10-10T14:05:20.761Z,20.40
2022-10-10T14:07:49.614Z,20.39
2022-10-10T14:10:19.736Z,20.38
2022-10-10T14:12:52.422Z,20.38
2022-10-10T14:15:37.269Z,20.42
2022-10-10T14:18:14.011Z,20.39
2022-10-10T14:20:41.692Z,20.42
2022-10-10T14:23:09.518Z,20.47
2022-10-10T14:25:38.966Z,20.44
2022-10-10T14:28:06.962Z,20.40
2022-10-10T14:30:36.449Z,20.35
2022-10-10T14:33:09.795Z,20.34
2022-10-10T14:35:37.658Z,20.34
2022-10-10T14:38:05.655Z,20.33
2022-10-10T14:40:34.819Z,20.25
2022-10-10T14:43:02.847Z,20.33
2022-10-10T14:45:30.861Z,20.40
2022-10-10T14:47:59.114Z,20.36
2022-10-10T14:50:36.838Z,20.34
2022-10-10T14:53:04.808Z,20.37
2022-10-10T14:55:32.833Z,20.44
2022-10-10T14:58:00.813Z,20.41
2022-10-10T15:00:28.877Z,20.41
2022-10-10T15:02:57.010Z,20.38
2022-10-10T15:05:25.071Z,20.37
2022-10-10T15:07:53.473Z,20.34
2022-10-10T15:10:33.703Z,20.38
2022-10-10T15:13:02.909Z,20.37
2022-10-10T15:15:33.331Z,20.34
2022-10-10T15:18:01.254Z,20.35
2022-10-10T15:20:32.324Z,20.45
2022-10-10T15:23:01.072Z,20.45
2022-10-10T15:25:33.310Z,20.42
2022-10-10T15:28:02.340Z,20.44
2022-10-10T15:30:30.575Z,20.52
2022-10-10T15:32:58.591Z,20.44
2022-10-10T15:35:26.624Z,20.49
2022-10-10T15:37:55.620Z,20.45
2022-10-10T15:40:24.118Z,20.42
2022-10-10T15:42:52.008Z,20.42
2022-10-10T15:45:37.391Z,20.44
2022-10-10T15:48:19.549Z,20.45
2022-10-10T15:50:47.537Z,20.46
2022-10-10T15:53:15.608Z,20.47
2022-10-10T15:55:44.308Z,20.51
2022-10-10T15:58:12.617Z,20.54
2022-10-10T16:00:41.573Z,20.53
2022-10-10T16:03:09.825Z,20.52
2022-10-10T16:05:41.099Z,20.56
2022-10-10T16:08:10.909Z,20.53
2022-10-10T16:10:39.698Z,20.54
2022-10-10T16:13:07.630Z,20.57
2022-10-10T16:15:35.738Z,20.53
2022-10-10T16:18:04.175Z,20.53
2022-10-10T16:20:35.408Z,20.54
2022-10-10T16:23:03.273Z,20.53
2022-10-10T16:25:31.136Z,20.50
2022-10-10T16:27:59.134Z,20.52
2022-10-10T16:30:27.161Z,20.56
2022-10-10T16:32:55.211Z,20.53
2022-10-10T16:35:23.244Z,20.52
2022-10-10T16:37:51.101Z,20.50
2022-10-10T16:40:21.871Z,20.48
2022-10-10T16:42:49.877Z,20.47
2022-10-10T16:45:17.782Z,20.48
2022-10-10T16:47:45.785Z,20.50
2022-10-10T16:50:13.819Z,20.53
2022-10-10T16:52:41.880Z,20.51
2022-10-10T16:55:10.911Z,20.50
2022-10-10T16:57:39.639Z,20.50
2022-10-10T17:00:09.033Z,20.51
2022-10-10T17:02:38.553Z,20.55
2022-10-10T17:05:06.779Z,20.47
2022-10-10T17:07:35.202Z,20.50
2022-10-10T17:10:03.672Z,20.50
2022-10-10T17:12:31.711Z,20.50
2022-10-10T17:14:59.738Z,20.48
2022-10-10T17:17:27.926Z,20.56
2022-10-10T17:19:56.182Z,20.55
2022-10-10T17:22:24.154Z,20.55
2022-10-10T17:24:52.497Z,20.57
2022-10-10T17:27:20.496Z,20.53
2022-10-10T17:29:48.532Z,20.57
2022-10-10T17:32:16.490Z,20.54
2022-10-10T17:34:44.469Z,20.51
2022-10-10T17:37:12.477Z,20.56
2022-10-10T17:39:40.390Z,20.53
2022-10-10T17:42:08.269Z,20.58
2022-10-10T17:44:43.596Z,20.55
2022-10-10T17:47:15.357Z,20.55
2022-10-10T17:49:46.121Z,20.54
2022-10-10T17:52:17.579Z,20.53
2022-10-10T17:54:48.639Z,20.53
2022-10-10T17:57:16.603Z,20.54
2022-10-10T17:59:44.604Z,20.54
2022-10-10T18:02:16.792Z,20.57
2022-10-10T18:04:45.129Z,20.60
2022-10-10T18:07:13.745Z,20.57
2022-10-10T18:09:42.372Z,20.56
2022-10-10T18:12:10.197Z,20.57
2022-10-10T18:14:38.429Z,20.55
2022-10-10T18:17:07.624Z,20.55
2022-10-10T18:19:35.620Z,20.57
2022-10-10T18:22:03.740Z,20.57
2022-10-10T18:24:36.981Z,20.66
2022-10-10T18:27:04.997Z,20.63
2022-10-10T18:29:33.001Z,20.60
2022-10-10T18:32:00.988Z,20.68
2022-10-10T18:34:29.101Z,20.62
2022-10-10T18:36:57.003Z,20.64
2022-10-10T18:39:28.301Z,20.66
2022-10-10T18:41:58.921Z,20.64
2022-10-10T18:44:26.947Z,20.60
2022-10-10T18:46:55.106Z,20.59
2022-10-10T18:49:24.795Z,20.59
2022-10-10T18:51:52.803Z,20.58
2022-10-10T18:54:20.844Z,20.57
2022-10-10T18:56:49.136Z,20.57
2022-10-10T18:59:18.249Z,20.58
2022-10-10T19:01:46.453Z,20.57
2022-10-10T19:04:15.105Z,20.57
2022-10-10T19:06:43.662Z,20.52
2022-10-10T19:09:12.700Z,20.56
2022-10-10T19:11:41.800Z,20.58
2022-10-10T19:14:11.387Z,20.57
2022-10-10T19:16:40.612Z,20.57
2022-10-10T19:19:08.627Z,20.57
2022-10-10T19:21:37.701Z,20.57
2022-10-10T19:24:06.969Z,20.54
2022-10-10T19:26:35.654Z,20.54
2022-10-10T19:29:08.282Z,20.57
2022-10-10T19:31:36.666Z,20.56
2022-10-10T19:34:04.953Z,20.57
2022-10-10T19:36:39.800Z,20.58
2022-10-10T19:39:08.346Z,20.57
2022-10-10T19:41:36.207Z,20.58
2022-10-10T19:44:05.440Z,20.58
2022-10-10T19:46:36.717Z,20.58
2022-10-10T19:49:05.402Z,20.57
2022-10-10T19:51:33.404Z,20.57
2022-10-10T19:54:01.445Z,20.58
2022-10-10T19:56:29.455Z,20.56
2022-10-10T19:58:58.920Z,20.56
2022-10-10T20:01:30.533Z,20.56
2022-10-10T20:03:59.125Z,20.57
2022-10-10T20:06:27.446Z,20.60
2022-10-10T20:08:55.408Z,20.56
2022-10-10T20:11:23.432Z,20.58
2022-10-10T20:13:55.126Z,20.57
2022-10-10T20:16:23.611Z,20.63
2022-10-10T20:18:51.469Z,20.58
2022-10-10T20:21:21.801Z,20.57
2022-10-10T20:23:49.630Z,20.55
2022-10-10T20:26:19.890Z,20.54
2022-10-10T20:28:48.874Z,20.54
2022-10-10T20:31:21.481Z,20.51
2022-10-10T20:33:52.879Z,20.48
2022-10-10T20:36:21.172Z,20.46
2022-10-10T20:38:53.418Z,20.47
2022-10-10T20:41:22.546Z,20.45
2022-10-10T20:43:50.581Z,20.43
2022-10-10T20:46:18.591Z,20.43
2022-10-10T20:48:46.610Z,20.44
2022-10-10T20:51:14.614Z,20.42
2022-10-10T20:53:42.442Z,20.42
2022-10-10T20:56:11.738Z,20.41
2022-10-10T20:58:39.983Z,20.39
2022-10-10T21:01:09.515Z,20.39
2022-10-10T21:03:37.799Z,20.39
2022-10-10T21:06:10.153Z,20.38
2022-10-10T21:08:38.283Z,20.39
2022-10-10T21:11:07.102Z,20.38
2022-10-10T21:13:36.160Z,20.37
2022-10-10T21:16:12.015Z,20.38
2022-10-10T21:18:40.519Z,20.38
2022-10-10T21:21:08.565Z,20.35
2022-10-10T21:23:37.806Z,20.34
2022-10-10T21:26:07.172Z,20.33
2022-10-10T21:28:36.044Z,20.33
2022-10-10T21:31:04.422Z,20.34
2022-10-10T21:33:32.761Z,20.33
2022-10-10T21:36:00.878Z,20.33
2022-10-10T21:38:29.516Z,20.33
2022-10-10T21:40:57.349Z,20.32
2022-10-10T21:43:25.373Z,20.32
2022-10-10T21:45:53.417Z,20.30
2022-10-10T21:48:21.402Z,20.32
2022-10-10T21:50:49.432Z,20.31
2022-10-10T21:53:17.445Z,20.31
2022-10-10T21:55:45.453Z,20.30
2022-10-10T21:58:13.470Z,20.28
2022-10-10T22:00:41.563Z,20.30
2022-10-10T22:03:09.871Z,20.28
2022-10-10T22:05:40.607Z,20.30
2022-10-10T22:08:08.618Z,20.29
2022-10-10T22:10:37.885Z,20.29
2022-10-10T22:13:05.897Z,20.27
2022-10-10T22:15:33.949Z,20.24
2022-10-10T22:18:02.131Z,20.27
2022-10-10T22:20:30.177Z,20.28
2022-10-10T22:22:58.285Z,20.26
2022-10-10T22:25:26.288Z,20.26
2022-10-10T22:27:57.238Z,20.26
2022-10-10T22:30:25.552Z,20.26
2022-10-10T22:32:53.558Z,20.23
2022-10-10T22:35:24.264Z,20.25
2022-10-10T22:37:52.326Z,20.24
2022-10-10T22:40:22.118Z,20.24
2022-10-10T22:42:50.187Z,20.25
2022-10-10T22:45:18.203Z,20.21
2022-10-10T22:47:49.280Z,20.22
2022-10-10T22:50:17.442Z,20.18
2022-10-10T22:52:45.456Z,20.20
2022-10-10T22:55:18.181Z,20.19
2022-10-10T22:57:46.500Z,20.15
2022-10-10T23:00:14.924Z,20.14
2022-10-10T23:02:42.918Z,20.19
2022-10-10T23:05:10.923Z,20.18
2022-10-10T23:07:38.963Z,20.15
2022-10-10T23:10:07.398Z,20.14
2022-10-10T23:12:35.393Z,20.15
2022-10-10T23:15:03.411Z,20.14
2022-10-10T23:17:31.420Z,20.11
2022-10-10T23:19:59.421Z,20.09
2022-10-10T23:22:27.247Z,20.09
2022-10-10T23:24:55.258Z,20.10
2022-10-10T23:27:23.260Z,20.11
2022-10-10T23:29:51.260Z,20.10
2022-10-10T23:32:19.347Z,20.07
2022-10-10T23:34:47.329Z,20.06
2022-10-10T23:37:15.354Z,20.08
2022-10-10T23:39:43.428Z,20.05
2022-10-10T23:42:11.457Z,20.03
2022-10-10T23:44:39.459Z,20.05
2022-10-10T23:47:07.585Z,20.05
2022-10-10T23:49:35.595Z,20.05
2022-10-10T23:52:03.775Z,20.01
2022-10-10T23:54:34.680Z,20.05
2022-10-10T23:57:02.706Z,20.04
2022-10-10T23:59:30.765Z,20.06
